createdAt,value
2022-10-26T00:01:26.000Z,9.70
2022-10-26T00:03:57.802Z,11.63
2022-10-26T00:06:29.008Z,11.50
2022-10-26T00:08:58.537Z,9.27
2022-10-26T00:11:28.214Z,12.10
2022-10-26T00:13:56.608Z,10.93
2022-10-26T00:16:27.549Z,8.73
2022-10-26T00:18:55.875Z,11.32
2022-10-26T00:21:24.223Z,11.15
2022-10-26T00:23:52.570Z,11.43
2022-10-26T00:26:20.898Z,10.95
2022-10-26T00:28:50.670Z,11.32
2022-10-26T00:31:19.169Z,8.55
2022-10-26T00:33:47.485Z,12.40
2022-10-26T00:36:16.934Z,11.07
2022-10-26T00:38:50.288Z,8.85
2022-10-26T00:41:21.333Z,9.93
2022-10-26T00:43:53.213Z,10.23
2022-10-26T00:46:25.607Z,10.70
2022-10-26T00:48:57.025Z,10.65
2022-10-26T00:51:33.013Z,10.68
2022-10-26T00:54:03.649Z,13.18
2022-10-26T00:56:33.581Z,13.35
2022-10-26T00:59:06.432Z,10.55
2022-10-26T01:01:36.206Z,11.30
2022-10-26T01:04:04.975Z,12.65
2022-10-26T01:06:35.306Z,8.07
2022-10-26T01:09:04.194Z,7.80
2022-10-26T01:11:32.768Z,9.90
2022-10-26T01:14:04.730Z,9.02
2022-10-26T01:16:54.834Z,11.13
2022-10-26T01:19:53.677Z,13.13
2022-10-26T01:22:25.499Z,11.70
2022-10-26T01:25:08.400Z,10.23
2022-10-26T01:27:37.937Z,10.82
2022-10-26T01:30:26.512Z,13.63
2022-10-26T01:33:10.626Z,9.90
2022-10-26T01:35:45.699Z,10.02
2022-10-26T01:38:27.767Z,9.73
2022-10-26T01:41:05.227Z,12.55
2022-10-26T01:43:38.154Z,9.65
2022-10-26T01:46:10.333Z,11.90
2022-10-26T01:48:41.031Z,10.13
2022-10-26T01:51:12.961Z,10.93
2022-10-26T01:53:47.076Z,14.63
2022-10-26T01:56:20.977Z,8.57
2022-10-26T01:59:15.064Z,10.18
2022-10-26T02:02:03.660Z,11.18
2022-10-26T02:04:43.014Z,9.88
2022-10-26T02:07:19.265Z,9.77
2022-10-26T02:09:58.097Z,8.02
2022-10-26T02:12:35.134Z,11.57
2022-10-26T02:15:07.670Z,10.77
2022-10-26T02:17:47.562Z,10.63
2022-10-26T02:20:21.843Z,8.27
2022-10-26T02:22:53.146Z,10.88
2022-10-26T02:25:24.928Z,12.55
2022-10-26T02:27:57.600Z,9.57
2022-10-26T02:30:26.466Z,10.05
2022-10-26T02:32:58.504Z,9.90
2022-10-26T02:35:31.156Z,11.82
2022-10-26T02:38:03.074Z,11.88
2022-10-26T02:40:33.573Z,9.02
2022-10-26T02:43:06.613Z,8.48
2022-10-26T02:45:40.685Z,9.00
2022-10-26T02:48:10.451Z,10.70
2022-10-26T02:50:48.857Z,9.52
2022-10-26T02:53:26.243Z,8.27
2022-10-26T02:55:54.924Z,12.18
2022-10-26T02:58:29.002Z,10.73
2022-10-26T03:00:58.177Z,8.90
2022-10-26T03:03:27.970Z,8.52
2022-10-26T03:05:56.347Z,11.23
2022-10-26T03:08:25.638Z,9.32
2022-10-26T03:10:54.127Z,9.70
2022-10-26T03:13:22.410Z,12.57
2022-10-26T03:15:50.776Z,9.95
2022-10-26T03:18:19.053Z,10.40
2022-10-26T03:20:48.782Z,10.65
2022-10-26T03:23:17.078Z,12.93
2022-10-26T03:25:45.452Z,10.98
2022-10-26T03:28:14.268Z,10.15
2022-10-26T03:30:42.633Z,9.18
2022-10-26T03:33:11.001Z,9.73
2022-10-26T03:35:39.362Z,11.02
2022-10-26T03:38:09.243Z,11.40
2022-10-26T03:40:37.879Z,9.73
2022-10-26T03:43:06.256Z,7.32
2022-10-26T03:45:34.647Z,12.60
2022-10-26T03:48:03.000Z,9.75
2022-10-26T03:50:31.551Z,11.95
2022-10-26T03:52:59.850Z,11.25
2022-10-26T03:55:29.666Z,8.13
2022-10-26T03:57:57.964Z,11.50
2022-10-26T04:00:26.450Z,10.02
2022-10-26T04:02:58.891Z,9.95
2022-10-26T04:05:29.284Z,10.45
2022-10-26T04:07:59.610Z,8.55
2022-10-26T04:10:30.237Z,8.90
2022-10-26T04:13:00.370Z,8.88
2022-10-26T04:15:29.606Z,9.57
2022-10-26T04:17:58.854Z,8.82
2022-10-26T04:20:28.043Z,8.45
2022-10-26T04:23:00.360Z,10.75
2022-10-26T04:25:32.952Z,8.73
2022-10-26T04:28:02.336Z,10.80
2022-10-26T04:30:30.821Z,11.02
2022-10-26T04:32:59.473Z,12.00
2022-10-26T04:35:28.073Z,9.50
2022-10-26T04:38:00.441Z,9.15
2022-10-26T04:40:31.008Z,12.30
2022-10-26T04:43:00.023Z,11.95
2022-10-26T04:45:31.196Z,8.80
2022-10-26T04:48:05.181Z,8.43
2022-10-26T04:50:34.099Z,11.23
2022-10-26T04:53:02.656Z,7.88
2022-10-26T04:55:32.493Z,10.95
2022-10-26T04:58:01.611Z,11.18
2022-10-26T05:00:33.219Z,11.00
2022-10-26T05:03:02.367Z,9.80
2022-10-26T05:05:32.383Z,11.43
2022-10-26T05:08:00.776Z,10.60
2022-10-26T05:10:29.908Z,11.20
2022-10-26T05:13:00.970Z,12.40
2022-10-26T05:15:30.150Z,10.82
2022-10-26T05:17:59.906Z,12.38
2022-10-26T05:20:31.265Z,10.10
2022-10-26T05:23:01.292Z,8.38
2022-10-26T05:25:31.347Z,10.95
2022-10-26T05:28:01.327Z,10.05
2022-10-26T05:30:30.496Z,9.85
2022-10-26T05:33:00.240Z,12.32
2022-10-26T05:35:28.989Z,9.60
2022-10-26T05:37:57.240Z,8.45
2022-10-26T05:40:25.961Z,11.45
2022-10-26T05:42:54.486Z,11.80
2022-10-26T05:45:24.153Z,11.93
2022-10-26T05:47:52.770Z,10.82
2022-10-26T05:50:21.444Z,10.88
2022-10-26T05:52:51.135Z,13.38
2022-10-26T05:55:20.461Z,10.57
2022-10-26T05:57:49.669Z,12.93
2022-10-26T06:00:20.017Z,8.10
2022-10-26T06:03:06.695Z,13.07
2022-10-26T06:05:39.969Z,13.48
2022-10-26T06:08:11.515Z,11.07
2022-10-26T06:10:41.041Z,10.93
2022-10-26T06:13:09.827Z,10.70
2022-10-26T06:15:46.441Z,9.18
2022-10-26T06:18:26.997Z,12.20
2022-10-26T06:21:19.054Z,10.00
2022-10-26T06:23:56.425Z,9.27
2022-10-26T06:26:37.151Z,10.73
2022-10-26T06:29:18.034Z,11.75
2022-10-26T06:31:48.105Z,11.02
2022-10-26T06:34:24.265Z,13.55
2022-10-26T06:39:23.639Z,10.95
2022-10-26T06:41:52.548Z,14.88
2022-10-26T06:44:24.507Z,13.68
2022-10-26T06:46:59.015Z,12.35
2022-10-26T06:49:33.428Z,12.00
2022-10-26T06:52:04.964Z,15.68
2022-10-26T06:54:49.408Z,14.85
2022-10-26T06:57:19.405Z,15.98
2022-10-26T06:59:51.688Z,11.80
2022-10-26T07:02:20.862Z,12.15
2022-10-26T07:04:50.698Z,9.38
2022-10-26T07:07:21.157Z,12.55
2022-10-26T07:09:49.653Z,11.95
2022-10-26T07:12:18.037Z,16.38
2022-10-26T07:14:46.267Z,16.10
2022-10-26T07:17:14.575Z,16.08
2022-10-26T07:19:44.953Z,15.23
2022-10-26T07:22:14.763Z,13.30
2022-10-26T07:24:43.035Z,13.88
2022-10-26T07:27:11.327Z,12.63
2022-10-26T07:29:39.738Z,11.68
2022-10-26T07:32:09.035Z,13.95
2022-10-26T07:34:37.418Z,18.02
2022-10-26T07:37:05.776Z,14.27
2022-10-26T07:39:35.377Z,12.77
2022-10-26T07:42:03.636Z,12.25
2022-10-26T07:44:31.960Z,9.48
2022-10-26T07:47:00.792Z,15.95
2022-10-26T07:49:29.093Z,13.23
2022-10-26T07:51:57.384Z,15.20
2022-10-26T07:54:25.708Z,12.93
2022-10-26T07:56:55.371Z,16.48
2022-10-26T07:59:23.676Z,13.30
2022-10-26T08:01:51.971Z,15.95
2022-10-26T08:04:20.304Z,19.27
2022-10-26T08:06:48.878Z,18.70
2022-10-26T08:09:17.094Z,15.52
2022-10-26T08:11:45.339Z,14.27
2022-10-26T08:14:15.492Z,13.48
2022-10-26T08:16:43.897Z,16.38
2022-10-26T08:19:12.184Z,16.88
2022-10-26T08:21:40.795Z,15.00
2022-10-26T08:24:09.687Z,15.65
2022-10-26T08:26:37.991Z,16.15
2022-10-26T08:29:07.057Z,16.60
2022-10-26T08:31:36.946Z,16.83
2022-10-26T08:34:05.322Z,12.10
2022-10-26T08:36:33.587Z,13.10
2022-10-26T08:39:01.870Z,21.38
2022-10-26T08:41:37.930Z,20.13
2022-10-26T08:44:15.424Z,18.88
2022-10-26T08:46:49.818Z,22.00
2022-10-26T08:49:24.416Z,20.05
2022-10-26T08:51:56.448Z,17.55
2022-10-26T08:54:36.540Z,21.30
2022-10-26T08:57:13.216Z,21.27
2022-10-26T08:59:49.012Z,19.02
2022-10-26T09:02:19.735Z,16.27
2022-10-26T09:04:48.309Z,18.20
2022-10-26T09:07:38.546Z,17.60
2022-10-26T09:10:23.351Z,20.52
2022-10-26T09:12:58.686Z,21.83
2022-10-26T09:15:34.237Z,22.02
2022-10-26T09:18:17.090Z,17.52
2022-10-26T09:21:09.986Z,19.58
2022-10-26T09:24:02.830Z,16.55
2022-10-26T09:26:34.246Z,21.38
2022-10-26T09:29:06.133Z,18.35
2022-10-26T09:31:43.148Z,22.05
2022-10-26T09:34:21.148Z,18.60
2022-10-26T09:36:52.494Z,13.88
2022-10-26T09:39:26.836Z,16.27
2022-10-26T09:41:59.894Z,21.38
2022-10-26T09:44:32.097Z,20.33
2022-10-26T09:47:06.157Z,16.95
2022-10-26T09:49:42.656Z,18.67
2022-10-26T09:54:44.926Z,21.95
2022-10-26T09:57:17.372Z,20.27
2022-10-26T09:59:50.001Z,15.38
2022-10-26T10:02:34.962Z,14.43
2022-10-26T10:05:27.461Z,16.35
2022-10-26T10:08:18.093Z,14.68
2022-10-26T10:11:03.396Z,16.40
2022-10-26T10:13:33.219Z,16.85
2022-10-26T10:16:07.179Z,21.67
2022-10-26T10:18:36.359Z,17.10
2022-10-26T10:21:07.289Z,15.82
2022-10-26T10:23:37.091Z,18.45
2022-10-26T10:26:12.133Z,26.88
2022-10-26T10:28:42.784Z,18.02
2022-10-26T10:31:21.919Z,16.55
2022-10-26T10:33:50.467Z,18.52
2022-10-26T10:36:22.648Z,15.45
2022-10-26T10:38:52.250Z,19.77
2022-10-26T10:41:26.322Z,16.33
2022-10-26T10:43:57.308Z,17.38
2022-10-26T10:46:28.293Z,15.32
2022-10-26T10:49:04.172Z,17.77
2022-10-26T10:51:39.817Z,16.67
2022-10-26T10:54:22.302Z,17.63
2022-10-26T10:56:54.380Z,17.20
2022-10-26T10:59:54.072Z,18.17
2022-10-26T11:03:10.270Z,16.63
2022-10-26T11:05:55.225Z,15.48
2022-10-26T11:08:31.984Z,14.50
2022-10-26T11:11:04.074Z,13.27
2022-10-26T11:13:38.093Z,19.00
2022-10-26T11:16:13.165Z,19.60
2022-10-26T11:18:45.563Z,16.23
2022-10-26T11:21:23.491Z,21.63
2022-10-26T11:23:58.338Z,19.73
2022-10-26T11:26:32.975Z,21.30
2022-10-26T11:29:04.845Z,12.85
2022-10-26T11:31:39.077Z,19.52
2022-10-26T11:34:20.204Z,21.50
2022-10-26T11:36:55.740Z,17.60
2022-10-26T11:39:33.051Z,20.67
2022-10-26T11:42:08.562Z,17.67
2022-10-26T11:44:41.336Z,20.95
2022-10-26T11:47:16.189Z,18.77
2022-10-26T11:49:50.310Z,19.70
2022-10-26T11:52:23.787Z,19.98
2022-10-26T11:54:56.664Z,20.67
2022-10-26T11:57:26.262Z,17.20
2022-10-26T11:59:58.489Z,15.35
2022-10-26T12:02:27.430Z,13.80
2022-10-26T12:05:01.863Z,20.80
2022-10-26T12:07:33.076Z,18.73
2022-10-26T12:10:05.428Z,14.18
2022-10-26T12:12:38.333Z,17.33
2022-10-26T12:15:19.351Z,15.55
2022-10-26T12:17:54.037Z,18.58
2022-10-26T12:21:02.493Z,19.42
2022-10-26T12:23:51.237Z,27.05
2022-10-26T12:26:55.389Z,18.65
2022-10-26T12:29:39.286Z,19.55
2022-10-26T12:32:39.211Z,17.67
2022-10-26T12:35:32.305Z,14.25
2022-10-26T12:38:01.952Z,19.60
2022-10-26T12:40:44.263Z,15.38
2022-10-26T12:43:42.308Z,23.55
2022-10-26T12:46:45.415Z,17.88
2022-10-26T12:49:47.624Z,20.30
2022-10-26T12:52:34.094Z,17.27
2022-10-26T12:55:30.503Z,15.98
2022-10-26T12:58:25.880Z,18.42
2022-10-26T13:01:28.730Z,17.60
2022-10-26T13:04:18.836Z,17.25
2022-10-26T13:07:01.041Z,15.85
2022-10-26T13:09:33.187Z,18.30
2022-10-26T13:12:06.978Z,22.98
2022-10-26T13:14:41.265Z,17.85
2022-10-26T13:17:26.368Z,20.02
2022-10-26T13:20:00.551Z,15.40
2022-10-26T13:22:29.533Z,11.77
2022-10-26T13:25:01.882Z,14.07
2022-10-26T13:27:45.667Z,17.02
2022-10-26T13:30:42.957Z,16.08
2022-10-26T13:33:24.609Z,16.52
2022-10-26T13:36:00.212Z,17.45
2022-10-26T13:38:34.240Z,14.27
2022-10-26T13:41:09.016Z,17.58
2022-10-26T13:43:39.019Z,17.67
2022-10-26T13:46:07.589Z,21.27
2022-10-26T13:48:40.587Z,14.98
2022-10-26T13:51:22.362Z,14.48
2022-10-26T13:53:55.875Z,13.27
2022-10-26T13:56:31.990Z,17.95
2022-10-26T13:59:03.708Z,12.00
2022-10-26T14:01:32.961Z,15.05
2022-10-26T14:04:01.290Z,22.98
2022-10-26T14:06:34.604Z,19.35
2022-10-26T14:09:05.570Z,19.73
2022-10-26T14:11:37.001Z,17.75
2022-10-26T14:14:06.030Z,16.90
2022-10-26T14:16:35.599Z,15.57
2022-10-26T14:19:04.466Z,25.58
2022-10-26T14:21:34.223Z,22.73
2022-10-26T14:24:07.698Z,13.52
2022-10-26T14:26:41.598Z,16.83
2022-10-26T14:29:18.387Z,15.20
2022-10-26T14:31:46.861Z,12.98
2022-10-26T14:34:15.413Z,12.80
2022-10-26T14:36:49.754Z,10.75
2022-10-26T14:39:26.046Z,14.90
2022-10-26T14:41:55.786Z,13.02
2022-10-26T14:44:25.716Z,14.07
2022-10-26T14:46:54.554Z,24.13
2022-10-26T14:49:25.235Z,17.48
2022-10-26T14:51:59.933Z,17.20
2022-10-26T14:54:29.343Z,20.55
2022-10-26T14:56:58.160Z,21.45
2022-10-26T14:59:29.266Z,14.23
2022-10-26T15:01:59.863Z,16.00
2022-10-26T15:04:35.155Z,22.25
2022-10-26T15:07:10.799Z,16.83
2022-10-26T15:09:45.186Z,21.55
2022-10-26T15:12:22.206Z,17.35
2022-10-26T15:14:51.809Z,13.73
2022-10-26T15:17:24.393Z,16.63
2022-10-26T15:19:53.786Z,15.55
2022-10-26T15:22:30.935Z,13.77
2022-10-26T15:25:02.981Z,19.50
2022-10-26T15:27:31.400Z,19.42
2022-10-26T15:30:22.216Z,19.73
2022-10-26T15:32:51.040Z,27.75
2022-10-26T15:35:30.939Z,22.65
2022-10-26T15:38:02.147Z,24.02
2022-10-26T15:40:32.950Z,21.90
2022-10-26T15:43:02.569Z,18.13
2022-10-26T15:45:35.157Z,17.38
2022-10-26T15:48:19.556Z,15.60
2022-10-26T15:50:48.042Z,20.40
2022-10-26T15:53:21.976Z,13.45
2022-10-26T15:55:51.282Z,20.55
2022-10-26T15:58:19.725Z,20.08
2022-10-26T16:00:48.012Z,14.60
2022-10-26T16:03:21.083Z,14.00
2022-10-26T16:05:51.707Z,25.05
2022-10-26T16:08:21.423Z,24.60
2022-10-26T16:10:51.155Z,15.32
2022-10-26T16:13:19.908Z,22.45
2022-10-26T16:15:48.441Z,22.88
2022-10-26T16:18:16.999Z,18.98
2022-10-26T16:20:47.761Z,21.20
2022-10-26T16:23:16.190Z,18.92
2022-10-26T16:25:47.591Z,17.13
2022-10-26T16:28:17.968Z,19.40
2022-10-26T16:30:46.465Z,15.73
2022-10-26T16:33:14.919Z,19.88
2022-10-26T16:35:43.536Z,18.52
2022-10-26T16:38:11.897Z,21.17
2022-10-26T16:40:42.774Z,19.73
2022-10-26T16:43:12.667Z,25.95
2022-10-26T16:45:42.853Z,20.15
2022-10-26T16:48:15.266Z,41.30
2022-10-26T16:50:43.734Z,35.70
2022-10-26T16:53:12.258Z,28.20
2022-10-26T16:55:40.549Z,24.73
2022-10-26T16:58:09.189Z,19.00
2022-10-26T17:00:39.327Z,21.98
2022-10-26T17:03:07.766Z,20.40
2022-10-26T17:05:36.025Z,24.40
2022-10-26T17:08:04.326Z,23.65
2022-10-26T17:10:34.337Z,23.40
2022-10-26T17:13:03.871Z,19.40
2022-10-26T17:15:34.222Z,16.70
2022-10-26T17:18:04.682Z,14.63
2022-10-26T17:20:33.201Z,17.60
2022-10-26T17:23:01.582Z,22.85
2022-10-26T17:25:29.951Z,21.13
2022-10-26T17:27:58.651Z,19.73
2022-10-26T17:30:28.488Z,19.10
2022-10-26T17:32:58.708Z,18.42
2022-10-26T17:35:28.419Z,18.88
2022-10-26T17:37:57.349Z,20.83
2022-10-26T17:40:25.660Z,18.40
2022-10-26T17:42:54.034Z,22.10
2022-10-26T17:45:23.592Z,19.35
2022-10-26T17:47:52.150Z,23.70
2022-10-26T17:50:20.742Z,18.67
2022-10-26T17:52:50.513Z,17.75
2022-10-26T17:55:18.901Z,17.30
2022-10-26T17:57:47.323Z,29.05
2022-10-26T18:00:18.350Z,26.00
2022-10-26T18:02:47.419Z,28.35
2022-10-26T18:05:16.089Z,25.58
2022-10-26T18:07:44.347Z,17.65
2022-10-26T18:10:36.541Z,17.70
2022-10-26T18:13:02.446Z,15.80
2022-10-26T18:15:30.792Z,18.30
2022-10-26T18:18:00.744Z,18.10
2022-10-26T18:20:29.323Z,29.20
2022-10-26T18:22:58.252Z,69.85
2022-10-26T18:25:28.527Z,41.85
2022-10-26T18:27:57.208Z,36.22
2022-10-26T18:30:26.136Z,19.38
2022-10-26T18:32:54.694Z,19.58
2022-10-26T18:35:23.376Z,21.70
2022-10-26T18:37:52.086Z,20.65
2022-10-26T18:40:20.504Z,16.15
2022-10-26T18:42:50.480Z,13.23
2022-10-26T18:45:18.968Z,20.20
2022-10-26T18:47:47.599Z,12.48
2022-10-26T18:50:16.806Z,16.85
2022-10-26T18:52:46.155Z,14.65
2022-10-26T18:55:14.474Z,20.67
2022-10-26T18:57:43.007Z,17.05
2022-10-26T19:00:14.474Z,16.17
2022-10-26T19:02:42.791Z,18.40
2022-10-26T19:05:11.570Z,22.23
2022-10-26T19:07:40.314Z,23.40
2022-10-26T19:10:09.955Z,20.88
2022-10-26T19:12:38.514Z,16.63
2022-10-26T19:15:08.022Z,17.75
2022-10-26T19:17:37.872Z,15.35
2022-10-26T19:20:07.563Z,18.40
2022-10-26T19:22:35.966Z,17.48
2022-10-26T19:25:05.033Z,16.38
2022-10-26T19:27:33.549Z,16.42
2022-10-26T19:30:02.093Z,23.17
2022-10-26T19:32:32.424Z,17.50
2022-10-26T19:35:03.052Z,17.45
2022-10-26T19:37:31.549Z,13.45
2022-10-26T19:40:01.185Z,17.92
2022-10-26T19:42:30.082Z,14.20
2022-10-26T19:44:58.823Z,18.38
2022-10-26T19:47:30.884Z,17.67
2022-10-26T19:50:00.083Z,14.52
2022-10-26T19:52:30.207Z,16.02
2022-10-26T19:54:59.404Z,18.67
2022-10-26T19:57:30.527Z,16.20
2022-10-26T19:59:58.995Z,18.48
2022-10-26T20:02:27.315Z,15.73
2022-10-26T20:04:55.647Z,18.30
2022-10-26T20:07:23.979Z,19.17
2022-10-26T20:09:53.656Z,16.75
2022-10-26T20:12:21.960Z,13.25
2022-10-26T20:14:50.409Z,20.85
2022-10-26T20:17:19.489Z,15.45
2022-10-26T20:19:48.507Z,17.05
2022-10-26T20:22:18.483Z,16.65
2022-10-26T20:24:47.034Z,17.75
2022-10-26T20:27:19.265Z,15.30
2022-10-26T20:29:48.439Z,17.98
2022-10-26T20:32:17.985Z,13.80
2022-10-26T20:34:47.135Z,16.90
2022-10-26T20:37:17.465Z,18.70
2022-10-26T20:39:47.255Z,20.00
2022-10-26T20:42:24.432Z,16.35
2022-10-26T20:45:02.634Z,15.55
2022-10-26T20:47:32.609Z,14.57
2022-10-26T20:50:02.453Z,17.67
2022-10-26T20:52:38.612Z,24.15
2022-10-26T20:55:16.004Z,17.13
2022-10-26T20:57:54.119Z,16.42
2022-10-26T21:00:23.091Z,15.35
2022-10-26T21:02:51.757Z,12.25
2022-10-26T21:05:21.091Z,18.25
2022-10-26T21:07:49.550Z,14.05
2022-10-26T21:10:18.012Z,16.35
2022-10-26T21:12:47.934Z,15.13
2022-10-26T21:15:16.520Z,16.20
2022-10-26T21:17:44.799Z,21.65
2022-10-26T21:20:13.345Z,14.45
2022-10-26T21:22:41.685Z,15.48
2022-10-26T21:25:10.609Z,20.27
2022-10-26T21:27:39.672Z,20.08
2022-10-26T21:30:11.145Z,16.55
2022-10-26T21:32:39.461Z,15.15
2022-10-26T21:35:08.464Z,21.73
2022-10-26T21:37:36.746Z,17.67
2022-10-26T21:40:05.851Z,19.90
2022-10-26T21:42:34.398Z,23.48
2022-10-26T21:45:03.000Z,25.98
2022-10-26T21:47:32.709Z,17.02
2022-10-26T21:50:01.034Z,12.82
2022-10-26T21:52:29.400Z,16.98
2022-10-26T21:54:57.651Z,13.57
2022-10-26T21:57:25.971Z,12.73
2022-10-26T21:59:54.346Z,15.98
2022-10-26T22:02:22.706Z,14.95
2022-10-26T22:04:53.007Z,15.38
2022-10-26T22:07:21.382Z,16.02
2022-10-26T22:10:07.884Z,15.20
2022-10-26T22:12:37.964Z,14.63
2022-10-26T22:15:07.622Z,14.52
2022-10-26T22:17:39.205Z,15.20
2022-10-26T22:20:10.731Z,15.10
2022-10-26T22:22:39.321Z,16.48
2022-10-26T22:25:08.715Z,14.32
2022-10-26T22:27:37.063Z,14.90
2022-10-26T22:30:06.050Z,16.23
2022-10-26T22:32:34.422Z,17.08
2022-10-26T22:35:11.314Z,16.23
2022-10-26T22:37:52.337Z,14.18
2022-10-26T22:40:20.969Z,13.40
2022-10-26T22:42:52.607Z,13.70
2022-10-26T22:45:21.479Z,16.63
2022-10-26T22:47:49.923Z,15.48
2022-10-26T22:50:18.825Z,14.25
2022-10-26T22:52:47.530Z,13.80
2022-10-26T22:55:17.685Z,16.00
2022-10-26T22:57:46.210Z,14.88
2022-10-26T23:00:15.689Z,20.40
2022-10-26T23:02:43.932Z,14.77
2022-10-26T23:05:12.315Z,16.02
2022-10-26T23:07:40.613Z,12.45
2022-10-26T23:10:09.945Z,14.43
2022-10-26T23:12:39.987Z,11.55
2022-10-26T23:15:09.054Z,16.98
2022-10-26T23:17:37.349Z,14.63
2022-10-26T23:20:06.709Z,15.52
2022-10-26T23:22:35.853Z,13.68
2022-10-26T23:25:04.115Z,13.75
2022-10-26T23:27:32.407Z,16.73
2022-10-26T23:30:02.132Z,15.57
2022-10-26T23:32:30.364Z,19.13
2022-10-26T23:34:58.888Z,15.75
2022-10-26T23:37:27.179Z,15.70
2022-10-26T23:39:55.546Z,16.42
2022-10-26T23:42:23.885Z,13.77
2022-10-26T23:44:52.158Z,16.38
2022-10-26T23:47:21.961Z,15.98
2022-10-26T23:49:50.278Z,17.00
2022-10-26T23:52:18.689Z,18.20
2022-10-26T23:54:46.932Z,16.20
2022-10-26T23:57:15.327Z,13.43
2022-10-26T23:59:43.704Z,21.95
